sensor_id;sensor_type;location;lat;lon;timestamp;temperature;humidity
13336;DHT22;6737;51.480;11.962;2023-01-24T00:01:21;2.40;99.90
13336;DHT22;6737;51.480;11.962;2023-01-24T00:03:47;2.40;99.90
13336;DHT22;6737;51.480;11.962;2023-01-24T00:06:13;2.40;99.90
13336;DHT22;6737;51.480;11.962;2023-01-24T00:08:39;2.40;99.90
13336;DHT22;6737;51.480;11.962;2023-01-24T00:11:08;2.40;99.90
13336;DHT22;6737;51.480;11.962;2023-01-24T00:13:35;2.40;99.90
13336;DHT22;6737;51.480;11.962;2023-01-24T00:16:03;2.40;99.90
13336;DHT22;6737;51.480;11.962;2023-01-24T00:18:29;2.40;99.90
13336;DHT22;6737;51.480;11.962;2023-01-24T00:21:06;2.40;99.90
13336;DHT22;6737;51.480;11.962;2023-01-24T00:23:36;2.40;99.90
13336;DHT22;6737;51.480;11.962;2023-01-24T00:26:02;2.40;99.90
13336;DHT22;6737;51.480;11.962;2023-01-24T00:28:28;2.40;99.90
13336;DHT22;6737;51.480;11.962;2023-01-24T00:30:54;2.40;99.90
13336;DHT22;6737;51.480;11.962;2023-01-24T00:33:19;2.40;99.90
13336;DHT22;6737;51.480;11.962;2023-01-24T00:35:45;2.40;99.90
13336;DHT22;6737;51.480;11.962;2023-01-24T00:38:11;2.40;99.90
13336;DHT22;6737;51.480;11.962;2023-01-24T00:40:37;2.40;99.90
13336;DHT22;6737;51.480;11.962;2023-01-24T00:43:02;2.40;99.90
13336;DHT22;6737;51.480;11.962;2023-01-24T00:45:28;2.30;99.90
13336;DHT22;6737;51.480;11.962;2023-01-24T00:47:54;2.30;99.90
13336;DHT22;6737;51.480;11.962;2023-01-24T00:50:20;2.30;99.90
13336;DHT22;6737;51.480;11.962;2023-01-24T00:52:45;2.30;99.90
13336;DHT22;6737;51.480;11.962;2023-01-24T00:55:11;2.20;99.90
13336;DHT22;6737;51.480;11.962;2023-01-24T00:57:37;2.30;99.90
13336;DHT22;6737;51.480;11.962;2023-01-24T01:00:03;2.20;99.90
13336;DHT22;6737;51.480;11.962;2023-01-24T01:02:30;2.10;99.90
13336;DHT22;6737;51.480;11.962;2023-01-24T01:04:55;2.20;99.90
13336;DHT22;6737;51.480;11.962;2023-01-24T01:07:21;2.10;99.90
13336;DHT22;6737;51.480;11.962;2023-01-24T01:09:48;2.20;99.90
13336;DHT22;6737;51.480;11.962;2023-01-24T01:12:14;2.20;99.90
13336;DHT22;6737;51.480;11.962;2023-01-24T01:14:39;2.30;99.90
13336;DHT22;6737;51.480;11.962;2023-01-24T01:17:05;2.30;99.90
13336;DHT22;6737;51.480;11.962;2023-01-24T01:19:31;2.20;99.90
13336;DHT22;6737;51.480;11.962;2023-01-24T01:21:57;2.30;99.90
13336;DHT22;6737;51.480;11.962;2023-01-24T01:24:23;2.30;99.90
13336;DHT22;6737;51.480;11.962;2023-01-24T01:26:48;2.30;99.90
13336;DHT22;6737;51.480;11.962;2023-01-24T01:29:14;2.20;99.90
13336;DHT22;6737;51.480;11.962;2023-01-24T01:31:40;2.20;99.90
13336;DHT22;6737;51.480;11.962;2023-01-24T01:34:05;2.20;99.90
13336;DHT22;6737;51.480;11.962;2023-01-24T01:36:31;2.20;99.90
13336;DHT22;6737;51.480;11.962;2023-01-24T01:38:57;2.20;99.90
13336;DHT22;6737;51.480;11.962;2023-01-24T01:41:23;2.20;99.90
13336;DHT22;6737;51.480;11.962;2023-01-24T01:43:48;2.20;99.90
13336;DHT22;6737;51.480;11.962;2023-01-24T01:46:51;2.10;99.90
13336;DHT22;6737;51.480;11.962;2023-01-24T01:49:24;2.20;99.90
13336;DHT22;6737;51.480;11.962;2023-01-24T01:51:55;2.10;99.90
13336;DHT22;6737;51.480;11.962;2023-01-24T01:54:34;2.20;99.90
13336;DHT22;6737;51.480;11.962;2023-01-24T01:57:08;2.20;99.90
13336;DHT22;6737;51.480;11.962;2023-01-24T01:59:39;2.20;99.90
13336;DHT22;6737;51.480;11.962;2023-01-24T02:02:08;2.20;99.90
13336;DHT22;6737;51.480;11.962;2023-01-24T02:04:36;2.20;99.90
13336;DHT22;6737;51.480;11.962;2023-01-24T02:07:21;2.20;99.90
13336;DHT22;6737;51.480;11.962;2023-01-24T02:09:51;2.20;99.90
13336;DHT22;6737;51.480;11.962;2023-01-24T02:12:33;2.20;99.90
13336;DHT22;6737;51.480;11.962;2023-01-24T02:15:07;2.10;99.90
13336;DHT22;6737;51.480;11.962;2023-01-24T02:17:52;2.20;99.90
13336;DHT22;6737;51.480;11.962;2023-01-24T02:25:42;2.20;99.90
13336;DHT22;6737;51.480;11.962;2023-01-24T02:28:10;2.20;99.90
13336;DHT22;6737;51.480;11.962;2023-01-24T02:30:37;2.20;99.90
13336;DHT22;6737;51.480;11.962;2023-01-24T02:33:12;2.20;99.90
13336;DHT22;6737;51.480;11.962;2023-01-24T02:35:38;2.20;99.90
13336;DHT22;6737;51.480;11.962;2023-01-24T02:38:07;2.20;99.90
13336;DHT22;6737;51.480;11.962;2023-01-24T02:40:37;2.10;99.90
13336;DHT22;6737;51.480;11.962;2023-01-24T02:43:04;2.20;99.90
13336;DHT22;6737;51.480;11.962;2023-01-24T02:45:33;2.20;99.90
13336;DHT22;6737;51.480;11.962;2023-01-24T02:48:00;2.10;99.90
13336;DHT22;6737;51.480;11.962;2023-01-24T02:50:28;2.10;99.90
13336;DHT22;6737;51.480;11.962;2023-01-24T02:52:54;2.10;99.90
13336;DHT22;6737;51.480;11.962;2023-01-24T02:55:39;2.10;99.90
13336;DHT22;6737;51.480;11.962;2023-01-24T02:58:25;2.20;99.90
13336;DHT22;6737;51.480;11.962;2023-01-24T03:00:51;2.20;99.90
13336;DHT22;6737;51.480;11.962;2023-01-24T03:03:17;2.20;99.90
13336;DHT22;6737;51.480;11.962;2023-01-24T03:05:43;2.20;99.90
13336;DHT22;6737;51.480;11.962;2023-01-24T03:08:31;2.20;99.90
13336;DHT22;6737;51.480;11.962;2023-01-24T03:10:58;2.20;99.90
13336;DHT22;6737;51.480;11.962;2023-01-24T03:13:24;2.20;99.90
13336;DHT22;6737;51.480;11.962;2023-01-24T03:16:10;2.10;99.90
13336;DHT22;6737;51.480;11.962;2023-01-24T03:18:54;2.10;99.90
13336;DHT22;6737;51.480;11.962;2023-01-24T03:21:39;2.10;99.90
13336;DHT22;6737;51.480;11.962;2023-01-24T03:24:23;2.10;99.90
13336;DHT22;6737;51.480;11.962;2023-01-24T03:27:08;2.10;99.90
13336;DHT22;6737;51.480;11.962;2023-01-24T03:29:52;2.00;99.90
13336;DHT22;6737;51.480;11.962;2023-01-24T03:32:37;2.10;99.90
13336;DHT22;6737;51.480;11.962;2023-01-24T03:35:21;2.00;99.90
13336;DHT22;6737;51.480;11.962;2023-01-24T03:37:47;2.00;99.90
13336;DHT22;6737;51.480;11.962;2023-01-24T03:40:31;2.10;99.90
13336;DHT22;6737;51.480;11.962;2023-01-24T03:42:59;2.00;99.90
13336;DHT22;6737;51.480;11.962;2023-01-24T03:45:28;2.00;99.90
13336;DHT22;6737;51.480;11.962;2023-01-24T03:47:57;2.00;99.90
13336;DHT22;6737;51.480;11.962;2023-01-24T03:50:43;2.00;99.90
13336;DHT22;6737;51.480;11.962;2023-01-24T03:53:30;1.90;99.90
13336;DHT22;6737;51.480;11.962;2023-01-24T03:55:58;1.90;99.90
13336;DHT22;6737;51.480;11.962;2023-01-24T03:58:26;1.90;99.90
13336;DHT22;6737;51.480;11.962;2023-01-24T04:00:53;1.90;99.90
13336;DHT22;6737;51.480;11.962;2023-01-24T04:03:19;1.90;99.90
13336;DHT22;6737;51.480;11.962;2023-01-24T04:05:47;1.90;99.90
13336;DHT22;6737;51.480;11.962;2023-01-24T04:08:14;1.80;99.90
13336;DHT22;6737;51.480;11.962;2023-01-24T04:10:40;1.80;99.90
13336;DHT22;6737;51.480;11.962;2023-01-24T04:13:06;1.80;99.90
13336;DHT22;6737;51.480;11.962;2023-01-24T04:15:32;1.80;99.90
13336;DHT22;6737;51.480;11.962;2023-01-24T04:18:00;1.90;99.90
13336;DHT22;6737;51.480;11.962;2023-01-24T04:20:28;1.90;99.90
13336;DHT22;6737;51.480;11.962;2023-01-24T04:22:54;1.90;99.90
13336;DHT22;6737;51.480;11.962;2023-01-24T04:25:20;1.90;99.90
13336;DHT22;6737;51.480;11.962;2023-01-24T04:27:47;1.90;99.90
13336;DHT22;6737;51.480;11.962;2023-01-24T04:30:14;1.90;99.90
13336;DHT22;6737;51.480;11.962;2023-01-24T04:32:41;1.90;99.90
13336;DHT22;6737;51.480;11.962;2023-01-24T04:35:08;1.90;99.90
13336;DHT22;6737;51.480;11.962;2023-01-24T04:37:34;1.90;99.90
13336;DHT22;6737;51.480;11.962;2023-01-24T04:40:00;1.90;99.90
13336;DHT22;6737;51.480;11.962;2023-01-24T04:42:27;1.90;99.90
13336;DHT22;6737;51.480;11.962;2023-01-24T04:44:52;1.90;99.90
13336;DHT22;6737;51.480;11.962;2023-01-24T04:47:18;1.90;99.90
13336;DHT22;6737;51.480;11.962;2023-01-24T04:49:44;1.90;99.90
13336;DHT22;6737;51.480;11.962;2023-01-24T04:52:13;1.80;99.90
13336;DHT22;6737;51.480;11.962;2023-01-24T04:54:39;1.80;99.90
13336;DHT22;6737;51.480;11.962;2023-01-24T04:57:06;1.80;99.90
13336;DHT22;6737;51.480;11.962;2023-01-24T04:59:32;1.80;99.90
13336;DHT22;6737;51.480;11.962;2023-01-24T05:01:57;1.80;99.90
13336;DHT22;6737;51.480;11.962;2023-01-24T05:04:23;1.80;99.90
13336;DHT22;6737;51.480;11.962;2023-01-24T05:06:49;1.80;99.90
13336;DHT22;6737;51.480;11.962;2023-01-24T05:09:15;1.80;99.90
13336;DHT22;6737;51.480;11.962;2023-01-24T05:11:41;1.80;99.90
13336;DHT22;6737;51.480;11.962;2023-01-24T05:14:09;1.80;99.90
13336;DHT22;6737;51.480;11.962;2023-01-24T05:16:36;1.80;99.90
13336;DHT22;6737;51.480;11.962;2023-01-24T05:19:02;1.80;99.90
13336;DHT22;6737;51.480;11.962;2023-01-24T05:21:28;1.80;99.90
13336;DHT22;6737;51.480;11.962;2023-01-24T05:23:54;1.80;99.90
13336;DHT22;6737;51.480;11.962;2023-01-24T05:26:22;1.80;99.90
13336;DHT22;6737;51.480;11.962;2023-01-24T05:28:52;1.80;99.90
13336;DHT22;6737;51.480;11.962;2023-01-24T05:31:19;1.90;99.90
13336;DHT22;6737;51.480;11.962;2023-01-24T05:33:45;1.90;99.90
13336;DHT22;6737;51.480;11.962;2023-01-24T05:36:20;1.90;99.90
13336;DHT22;6737;51.480;11.962;2023-01-24T05:38:47;1.90;99.90
13336;DHT22;6737;51.480;11.962;2023-01-24T05:41:15;1.90;99.90
13336;DHT22;6737;51.480;11.962;2023-01-24T05:43:43;1.90;99.90
13336;DHT22;6737;51.480;11.962;2023-01-24T05:46:15;1.90;99.90
13336;DHT22;6737;51.480;11.962;2023-01-24T05:48:42;1.80;99.90
13336;DHT22;6737;51.480;11.962;2023-01-24T05:51:10;1.80;99.90
13336;DHT22;6737;51.480;11.962;2023-01-24T05:53:38;1.90;99.90
13336;DHT22;6737;51.480;11.962;2023-01-24T05:56:07;1.80;99.90
13336;DHT22;6737;51.480;11.962;2023-01-24T05:58:36;1.90;99.90
13336;DHT22;6737;51.480;11.962;2023-01-24T06:01:18;1.80;99.90
13336;DHT22;6737;51.480;11.962;2023-01-24T06:03:50;1.80;99.90
13336;DHT22;6737;51.480;11.962;2023-01-24T06:06:18;1.80;99.90
13336;DHT22;6737;51.480;11.962;2023-01-24T06:08:45;1.90;99.90
13336;DHT22;6737;51.480;11.962;2023-01-24T06:11:19;1.90;99.90
13336;DHT22;6737;51.480;11.962;2023-01-24T06:13:45;1.80;99.90
13336;DHT22;6737;51.480;11.962;2023-01-24T06:16:22;1.80;99.90
13336;DHT22;6737;51.480;11.962;2023-01-24T06:18:50;1.80;99.90
13336;DHT22;6737;51.480;11.962;2023-01-24T06:24:00;1.90;99.90
13336;DHT22;6737;51.480;11.962;2023-01-24T06:26:26;1.80;99.90
13336;DHT22;6737;51.480;11.962;2023-01-24T06:28:52;1.80;99.90
13336;DHT22;6737;51.480;11.962;2023-01-24T06:39:21;1.90;99.90
13336;DHT22;6737;51.480;11.962;2023-01-24T06:41:48;1.90;99.90
13336;DHT22;6737;51.480;11.962;2023-01-24T06:44:14;1.90;99.90
13336;DHT22;6737;51.480;11.962;2023-01-24T06:46:40;1.80;99.90
13336;DHT22;6737;51.480;11.962;2023-01-24T06:49:05;1.80;99.90
13336;DHT22;6737;51.480;11.962;2023-01-24T06:51:31;1.80;99.90
13336;DHT22;6737;51.480;11.962;2023-01-24T06:53:58;1.80;99.90
13336;DHT22;6737;51.480;11.962;2023-01-24T06:56:24;1.90;99.90
13336;DHT22;6737;51.480;11.962;2023-01-24T06:58:50;1.90;99.90
13336;DHT22;6737;51.480;11.962;2023-01-24T07:01:16;1.90;99.90
13336;DHT22;6737;51.480;11.962;2023-01-24T07:03:41;1.90;99.90
13336;DHT22;6737;51.480;11.962;2023-01-24T07:06:07;1.90;99.90
13336;DHT22;6737;51.480;11.962;2023-01-24T07:08:33;1.80;99.90
13336;DHT22;6737;51.480;11.962;2023-01-24T07:10:59;1.80;99.90
13336;DHT22;6737;51.480;11.962;2023-01-24T07:13:24;1.80;99.90
13336;DHT22;6737;51.480;11.962;2023-01-24T07:15:50;1.80;99.90
13336;DHT22;6737;51.480;11.962;2023-01-24T07:18:17;1.90;99.90
13336;DHT22;6737;51.480;11.962;2023-01-24T07:20:44;1.80;99.90
13336;DHT22;6737;51.480;11.962;2023-01-24T07:23:28;1.80;99.90
13336;DHT22;6737;51.480;11.962;2023-01-24T07:25:55;1.90;99.90
13336;DHT22;6737;51.480;11.962;2023-01-24T07:28:21;1.80;99.90
13336;DHT22;6737;51.480;11.962;2023-01-24T07:30:48;1.80;99.90
13336;DHT22;6737;51.480;11.962;2023-01-24T07:33:15;1.80;99.90
13336;DHT22;6737;51.480;11.962;2023-01-24T07:35:41;1.80;99.90
13336;DHT22;6737;51.480;11.962;2023-01-24T07:38:07;1.70;99.90
13336;DHT22;6737;51.480;11.962;2023-01-24T07:40:34;1.70;99.90
13336;DHT22;6737;51.480;11.962;2023-01-24T07:43:02;1.70;99.90
13336;DHT22;6737;51.480;11.962;2023-01-24T07:45:28;1.70;99.90
13336;DHT22;6737;51.480;11.962;2023-01-24T07:47:58;1.70;99.90
13336;DHT22;6737;51.480;11.962;2023-01-24T07:50:25;1.80;99.90
13336;DHT22;6737;51.480;11.962;2023-01-24T07:52:52;1.80;99.90
13336;DHT22;6737;51.480;11.962;2023-01-24T07:55:19;1.80;99.90
13336;DHT22;6737;51.480;11.962;2023-01-24T07:57:46;1.70;99.90
13336;DHT22;6737;51.480;11.962;2023-01-24T08:00:12;1.70;99.90
13336;DHT22;6737;51.480;11.962;2023-01-24T08:02:40;1.70;99.90
13336;DHT22;6737;51.480;11.962;2023-01-24T08:05:06;1.70;99.90
13336;DHT22;6737;51.480;11.962;2023-01-24T08:07:32;1.80;99.90
13336;DHT22;6737;51.480;11.962;2023-01-24T08:09:58;1.80;99.90
13336;DHT22;6737;51.480;11.962;2023-01-24T08:12:23;1.80;99.90
13336;DHT22;6737;51.480;11.962;2023-01-24T08:14:49;1.80;99.90
13336;DHT22;6737;51.480;11.962;2023-01-24T08:17:15;1.80;99.90
13336;DHT22;6737;51.480;11.962;2023-01-24T08:19:41;1.80;99.90
13336;DHT22;6737;51.480;11.962;2023-01-24T08:22:07;1.80;99.90
13336;DHT22;6737;51.480;11.962;2023-01-24T08:24:33;1.80;99.90
13336;DHT22;6737;51.480;11.962;2023-01-24T08:27:00;1.80;99.90
13336;DHT22;6737;51.480;11.962;2023-01-24T08:29:27;1.80;99.90
13336;DHT22;6737;51.480;11.962;2023-01-24T08:31:53;1.70;99.90
13336;DHT22;6737;51.480;11.962;2023-01-24T08:34:18;1.80;99.90
13336;DHT22;6737;51.480;11.962;2023-01-24T08:36:44;1.70;99.90
13336;DHT22;6737;51.480;11.962;2023-01-24T08:39:10;1.70;99.90
13336;DHT22;6737;51.480;11.962;2023-01-24T08:41:36;1.80;99.90
13336;DHT22;6737;51.480;11.962;2023-01-24T08:44:03;1.70;99.90
13336;DHT22;6737;51.480;11.962;2023-01-24T08:46:30;1.80;99.90
13336;DHT22;6737;51.480;11.962;2023-01-24T08:48:56;1.80;99.90
13336;DHT22;6737;51.480;11.962;2023-01-24T08:51:22;1.80;99.90
13336;DHT22;6737;51.480;11.962;2023-01-24T08:53:48;1.80;99.90
13336;DHT22;6737;51.480;11.962;2023-01-24T08:56:14;1.90;99.90
13336;DHT22;6737;51.480;11.962;2023-01-24T08:58:39;1.90;99.90
13336;DHT22;6737;51.480;11.962;2023-01-24T09:01:09;1.80;99.90
13336;DHT22;6737;51.480;11.962;2023-01-24T09:03:35;1.90;99.90
13336;DHT22;6737;51.480;11.962;2023-01-24T09:06:02;1.90;99.90
13336;DHT22;6737;51.480;11.962;2023-01-24T09:08:28;1.90;99.90
13336;DHT22;6737;51.480;11.962;2023-01-24T09:10:57;1.80;99.90
13336;DHT22;6737;51.480;11.962;2023-01-24T09:13:24;1.80;99.90
13336;DHT22;6737;51.480;11.962;2023-01-24T09:15:50;1.80;99.90
13336;DHT22;6737;51.480;11.962;2023-01-24T09:18:16;1.80;99.90
13336;DHT22;6737;51.480;11.962;2023-01-24T09:20:42;1.80;99.90
13336;DHT22;6737;51.480;11.962;2023-01-24T09:23:09;1.90;99.90
13336;DHT22;6737;51.480;11.962;2023-01-24T09:25:38;1.90;99.90
13336;DHT22;6737;51.480;11.962;2023-01-24T09:28:04;1.80;99.90
13336;DHT22;6737;51.480;11.962;2023-01-24T09:30:31;1.80;99.90
13336;DHT22;6737;51.480;11.962;2023-01-24T09:32:57;1.90;99.90
13336;DHT22;6737;51.480;11.962;2023-01-24T09:35:23;1.80;99.90
13336;DHT22;6737;51.480;11.962;2023-01-24T09:37:51;1.90;99.90
13336;DHT22;6737;51.480;11.962;2023-01-24T09:40:26;1.90;99.90
13336;DHT22;6737;51.480;11.962;2023-01-24T09:45:41;2.00;99.90
13336;DHT22;6737;51.480;11.962;2023-01-24T09:48:14;2.00;99.90
13336;DHT22;6737;51.480;11.962;2023-01-24T09:50:45;2.00;99.90
13336;DHT22;6737;51.480;11.962;2023-01-24T09:53:23;1.90;99.90
13336;DHT22;6737;51.480;11.962;2023-01-24T09:55:50;1.90;99.90
13336;DHT22;6737;51.480;11.962;2023-01-24T09:58:28;2.00;99.90
13336;DHT22;6737;51.480;11.962;2023-01-24T10:01:05;2.00;99.90
13336;DHT22;6737;51.480;11.962;2023-01-24T10:03:35;2.00;99.90
13336;DHT22;6737;51.480;11.962;2023-01-24T10:06:14;2.10;99.90
13336;DHT22;6737;51.480;11.962;2023-01-24T10:11:34;2.10;99.90
13336;DHT22;6737;51.480;11.962;2023-01-24T10:17:21;2.20;99.90
13336;DHT22;6737;51.480;11.962;2023-01-24T10:20:16;2.20;99.90
13336;DHT22;6737;51.480;11.962;2023-01-24T10:23:08;2.20;99.90
13336;DHT22;6737;51.480;11.962;2023-01-24T10:28:35;2.20;99.90
13336;DHT22;6737;51.480;11.962;2023-01-24T10:31:58;2.20;99.90
13336;DHT22;6737;51.480;11.962;2023-01-24T10:34:13;2.20;99.90
13336;DHT22;6737;51.480;11.962;2023-01-24T10:37:10;2.20;99.90
13336;DHT22;6737;51.480;11.962;2023-01-24T10:39:39;2.20;99.90
13336;DHT22;6737;51.480;11.962;2023-01-24T10:42:27;2.20;99.90
13336;DHT22;6737;51.480;11.962;2023-01-24T10:44:58;2.10;99.90
13336;DHT22;6737;51.480;11.962;2023-01-24T10:47:44;2.20;99.90
13336;DHT22;6737;51.480;11.962;2023-01-24T10:50:16;2.30;99.90
13336;DHT22;6737;51.480;11.962;2023-01-24T10:52:43;2.20;99.90
13336;DHT22;6737;51.480;11.962;2023-01-24T10:55:31;2.20;99.90
13336;DHT22;6737;51.480;11.962;2023-01-24T10:58:03;2.20;99.90
13336;DHT22;6737;51.480;11.962;2023-01-24T11:00:35;2.20;99.90
13336;DHT22;6737;51.480;11.962;2023-01-24T11:03:31;2.20;99.90
13336;DHT22;6737;51.480;11.962;2023-01-24T11:06:01;2.30;99.90
13336;DHT22;6737;51.480;11.962;2023-01-24T11:08:36;2.30;99.90
13336;DHT22;6737;51.480;11.962;2023-01-24T11:11:25;2.30;99.90
13336;DHT22;6737;51.480;11.962;2023-01-24T11:13:56;2.30;99.90
13336;DHT22;6737;51.480;11.962;2023-01-24T11:16:34;2.30;99.90
13336;DHT22;6737;51.480;11.962;2023-01-24T11:19:34;2.40;99.90
13336;DHT22;6737;51.480;11.962;2023-01-24T11:22:20;2.40;99.90
13336;DHT22;6737;51.480;11.962;2023-01-24T11:24:46;2.30;99.90
13336;DHT22;6737;51.480;11.962;2023-01-24T11:27:17;2.30;99.90
13336;DHT22;6737;51.480;11.962;2023-01-24T11:29:44;2.30;99.90
13336;DHT22;6737;51.480;11.962;2023-01-24T11:46:34;2.30;99.90
13336;DHT22;6737;51.480;11.962;2023-01-24T11:54:54;2.30;99.90
13336;DHT22;6737;51.480;11.962;2023-01-24T12:00:35;2.30;99.90
13336;DHT22;6737;51.480;11.962;2023-01-24T12:12:41;2.30;99.90
13336;DHT22;6737;51.480;11.962;2023-01-24T12:15:16;2.30;99.90
13336;DHT22;6737;51.480;11.962;2023-01-24T12:18:01;2.30;99.90
13336;DHT22;6737;51.480;11.962;2023-01-24T12:23:02;2.20;99.90
13336;DHT22;6737;51.480;11.962;2023-01-24T12:25:32;2.20;99.90
13336;DHT22;6737;51.480;11.962;2023-01-24T12:28:01;2.20;99.90
13336;DHT22;6737;51.480;11.962;2023-01-24T12:30:37;2.20;99.90
13336;DHT22;6737;51.480;11.962;2023-01-24T12:33:22;2.20;99.90
13336;DHT22;6737;51.480;11.962;2023-01-24T12:35:52;2.20;99.90
13336;DHT22;6737;51.480;11.962;2023-01-24T12:38:43;2.30;99.90
13336;DHT22;6737;51.480;11.962;2023-01-24T12:41:35;2.30;99.90
13336;DHT22;6737;51.480;11.962;2023-01-24T12:49:27;2.40;99.90
13336;DHT22;6737;51.480;11.962;2023-01-24T12:52:19;2.40;99.90
13336;DHT22;6737;51.480;11.962;2023-01-24T12:54:49;2.30;99.90
13336;DHT22;6737;51.480;11.962;2023-01-24T13:11:45;2.30;99.90
13336;DHT22;6737;51.480;11.962;2023-01-24T13:19:38;2.30;99.90
13336;DHT22;6737;51.480;11.962;2023-01-24T13:31:18;2.40;99.90
13336;DHT22;6737;51.480;11.962;2023-01-24T13:33:54;2.40;99.90
13336;DHT22;6737;51.480;11.962;2023-01-24T13:36:34;2.50;99.90
13336;DHT22;6737;51.480;11.962;2023-01-24T13:39:01;2.50;99.90
13336;DHT22;6737;51.480;11.962;2023-01-24T13:44:25;2.40;99.90
13336;DHT22;6737;51.480;11.962;2023-01-24T13:51:56;2.50;99.90
13336;DHT22;6737;51.480;11.962;2023-01-24T14:02:31;2.50;99.90
13336;DHT22;6737;51.480;11.962;2023-01-24T14:04:57;2.50;99.90
13336;DHT22;6737;51.480;11.962;2023-01-24T14:07:29;2.50;99.90
13336;DHT22;6737;51.480;11.962;2023-01-24T14:10:00;2.50;99.90
13336;DHT22;6737;51.480;11.962;2023-01-24T14:12:28;2.50;99.90
13336;DHT22;6737;51.480;11.962;2023-01-24T14:20:22;2.40;99.90
13336;DHT22;6737;51.480;11.962;2023-01-24T14:22:52;2.40;99.90
13336;DHT22;6737;51.480;11.962;2023-01-24T14:28:31;2.40;99.90
13336;DHT22;6737;51.480;11.962;2023-01-24T14:31:20;2.40;99.90
13336;DHT22;6737;51.480;11.962;2023-01-24T14:36:36;2.30;99.90
13336;DHT22;6737;51.480;11.962;2023-01-24T14:41:40;2.40;99.90
13336;DHT22;6737;51.480;11.962;2023-01-24T14:44:52;2.40;99.90
13336;DHT22;6737;51.480;11.962;2023-01-24T14:47:21;2.40;99.90
13336;DHT22;6737;51.480;11.962;2023-01-24T14:49:50;2.40;99.90
13336;DHT22;6737;51.480;11.962;2023-01-24T14:52:26;2.40;99.90
13336;DHT22;6737;51.480;11.962;2023-01-24T14:57:57;2.40;99.90
13336;DHT22;6737;51.480;11.962;2023-01-24T15:00:38;2.40;99.90
13336;DHT22;6737;51.480;11.962;2023-01-24T15:03:04;2.40;99.90
13336;DHT22;6737;51.480;11.962;2023-01-24T15:05:32;2.40;99.90
13336;DHT22;6737;51.480;11.962;2023-01-24T15:08:00;2.40;99.90
13336;DHT22;6737;51.480;11.962;2023-01-24T15:10:33;2.40;99.90
13336;DHT22;6737;51.480;11.962;2023-01-24T15:13:05;2.40;99.90
13336;DHT22;6737;51.480;11.962;2023-01-24T15:15:32;2.40;99.90
13336;DHT22;6737;51.480;11.962;2023-01-24T15:18:01;2.30;99.90
13336;DHT22;6737;51.480;11.962;2023-01-24T15:20:27;2.30;99.90
13336;DHT22;6737;51.480;11.962;2023-01-24T15:22:57;2.40;99.90
13336;DHT22;6737;51.480;11.962;2023-01-24T15:25:31;2.40;99.90
13336;DHT22;6737;51.480;11.962;2023-01-24T15:28:09;2.40;99.90
13336;DHT22;6737;51.480;11.962;2023-01-24T15:30:35;2.40;99.90
13336;DHT22;6737;51.480;11.962;2023-01-24T15:33:08;2.40;99.90
13336;DHT22;6737;51.480;11.962;2023-01-24T15:35:46;2.30;99.90
13336;DHT22;6737;51.480;11.962;2023-01-24T15:40:54;2.30;99.90
13336;DHT22;6737;51.480;11.962;2023-01-24T15:43:35;2.20;99.90
13336;DHT22;6737;51.480;11.962;2023-01-24T15:49:25;2.30;99.90
13336;DHT22;6737;51.480;11.962;2023-01-24T15:54:43;2.30;99.90
13336;DHT22;6737;51.480;11.962;2023-01-24T15:57:30;2.30;99.90
13336;DHT22;6737;51.480;11.962;2023-01-24T16:00:03;2.30;99.90
13336;DHT22;6737;51.480;11.962;2023-01-24T16:02:44;2.30;99.90
13336;DHT22;6737;51.480;11.962;2023-01-24T16:05:15;2.30;99.90
13336;DHT22;6737;51.480;11.962;2023-01-24T16:07:41;2.30;99.90
13336;DHT22;6737;51.480;11.962;2023-01-24T16:10:11;2.30;99.90
13336;DHT22;6737;51.480;11.962;2023-01-24T16:12:38;2.30;99.90
13336;DHT22;6737;51.480;11.962;2023-01-24T16:15:04;2.10;99.90
13336;DHT22;6737;51.480;11.962;2023-01-24T16:17:30;2.20;99.90
13336;DHT22;6737;51.480;11.962;2023-01-24T16:19:56;2.20;99.90
13336;DHT22;6737;51.480;11.962;2023-01-24T16:22:21;2.20;99.90
13336;DHT22;6737;51.480;11.962;2023-01-24T16:24:48;2.20;99.90
13336;DHT22;6737;51.480;11.962;2023-01-24T16:27:14;2.20;99.90
13336;DHT22;6737;51.480;11.962;2023-01-24T16:29:41;2.20;99.90
13336;DHT22;6737;51.480;11.962;2023-01-24T16:32:21;2.20;99.90
13336;DHT22;6737;51.480;11.962;2023-01-24T16:34:49;2.20;99.90
13336;DHT22;6737;51.480;11.962;2023-01-24T16:37:15;2.20;99.90
13336;DHT22;6737;51.480;11.962;2023-01-24T16:39:43;2.20;99.90
13336;DHT22;6737;51.480;11.962;2023-01-24T16:42:15;2.10;99.90
13336;DHT22;6737;51.480;11.962;2023-01-24T16:44:41;2.10;99.90
13336;DHT22;6737;51.480;11.962;2023-01-24T16:47:07;2.10;99.90
13336;DHT22;6737;51.480;11.962;2023-01-24T16:49:33;2.10;99.90
13336;DHT22;6737;51.480;11.962;2023-01-24T16:51:58;2.10;99.90
13336;DHT22;6737;51.480;11.962;2023-01-24T16:54:25;2.10;99.90
13336;DHT22;6737;51.480;11.962;2023-01-24T16:56:50;2.10;99.90
13336;DHT22;6737;51.480;11.962;2023-01-24T16:59:16;2.10;99.90
13336;DHT22;6737;51.480;11.962;2023-01-24T17:01:43;2.10;99.90
13336;DHT22;6737;51.480;11.962;2023-01-24T17:04:09;2.20;99.90
13336;DHT22;6737;51.480;11.962;2023-01-24T17:06:35;2.20;99.90
13336;DHT22;6737;51.480;11.962;2023-01-24T17:09:00;2.10;99.90
13336;DHT22;6737;51.480;11.962;2023-01-24T17:11:31;2.10;99.90
13336;DHT22;6737;51.480;11.962;2023-01-24T17:13:58;2.10;99.90
13336;DHT22;6737;51.480;11.962;2023-01-24T17:16:24;2.10;99.90
13336;DHT22;6737;51.480;11.962;2023-01-24T17:18:49;2.10;99.90
13336;DHT22;6737;51.480;11.962;2023-01-24T17:21:16;2.10;99.90
13336;DHT22;6737;51.480;11.962;2023-01-24T17:23:42;2.10;99.90
13336;DHT22;6737;51.480;11.962;2023-01-24T17:26:14;2.10;99.90
13336;DHT22;6737;51.480;11.962;2023-01-24T17:28:41;2.10;99.90
13336;DHT22;6737;51.480;11.962;2023-01-24T17:31:14;2.10;99.90
13336;DHT22;6737;51.480;11.962;2023-01-24T17:33:41;2.10;99.90
13336;DHT22;6737;51.480;11.962;2023-01-24T17:36:07;2.10;99.90
13336;DHT22;6737;51.480;11.962;2023-01-24T17:38:34;2.10;99.90
13336;DHT22;6737;51.480;11.962;2023-01-24T17:41:00;2.10;99.90
13336;DHT22;6737;51.480;11.962;2023-01-24T17:43:27;2.10;99.90
13336;DHT22;6737;51.480;11.962;2023-01-24T17:45:59;2.10;99.90
13336;DHT22;6737;51.480;11.962;2023-01-24T17:48:26;2.10;99.90
13336;DHT22;6737;51.480;11.962;2023-01-24T17:50:52;2.10;99.90
13336;DHT22;6737;51.480;11.962;2023-01-24T17:53:18;2.10;99.90
13336;DHT22;6737;51.480;11.962;2023-01-24T17:55:44;2.10;99.90
13336;DHT22;6737;51.480;11.962;2023-01-24T17:58:11;2.10;99.90
13336;DHT22;6737;51.480;11.962;2023-01-24T18:00:37;2.10;99.90
13336;DHT22;6737;51.480;11.962;2023-01-24T18:03:04;2.10;99.90
13336;DHT22;6737;51.480;11.962;2023-01-24T18:05:32;2.00;99.90
13336;DHT22;6737;51.480;11.962;2023-01-24T18:07:58;1.90;99.90
13336;DHT22;6737;51.480;11.962;2023-01-24T18:10:24;2.00;99.90
13336;DHT22;6737;51.480;11.962;2023-01-24T18:12:50;2.00;99.90
13336;DHT22;6737;51.480;11.962;2023-01-24T18:15:16;2.00;99.90
13336;DHT22;6737;51.480;11.962;2023-01-24T18:17:41;2.00;99.90
13336;DHT22;6737;51.480;11.962;2023-01-24T18:20:08;2.00;99.90
13336;DHT22;6737;51.480;11.962;2023-01-24T18:22:34;2.00;99.90